createdAt,value
2018-02-08T00:00:52.828Z,53.55
2018-02-08T00:03:21.164Z,58.17
2018-02-08T00:05:48.766Z,60.17
2018-02-08T00:08:17.308Z,61.30
2018-02-08T00:10:45.174Z,53.50
2018-02-08T00:13:13.040Z,54.75
2018-02-08T00:15:41.731Z,50.97
2018-02-08T00:18:09.241Z,55.22
2018-02-08T00:20:36.665Z,64.55
2018-02-08T00:23:03.584Z,56.15
2018-02-08T00:25:31.143Z,56.92
2018-02-08T00:27:59.025Z,57.30
2018-02-08T00:30:26.055Z,58.65
2018-02-08T00:32:53.159Z,51.95
2018-02-08T00:35:21.540Z,68.28
2018-02-08T00:37:49.120Z,57.65
2018-02-08T00:40:17.015Z,63.35
2018-02-08T00:42:44.084Z,58.70
2018-02-08T00:45:10.426Z,58.38
2018-02-08T00:47:38.877Z,58.13
2018-02-08T00:50:06.063Z,58.87
2018-02-08T00:52:33.388Z,58.22
2018-02-08T00:55:01.650Z,55.25
2018-02-08T00:57:28.468Z,60.30
2018-02-08T00:59:54.763Z,61.55
2018-02-08T01:02:21.687Z,54.17
2018-02-08T01:04:48.932Z,59.53
2018-02-08T01:07:15.279Z,58.22
2018-02-08T01:09:43.027Z,58.83
2018-02-08T01:12:09.436Z,57.70
2018-02-08T01:14:36.024Z,64.15
2018-02-08T01:17:03.072Z,62.20
2018-02-08T01:19:29.902Z,56.40
2018-02-08T01:21:56.331Z,51.92
2018-02-08T01:24:22.767Z,58.58
2018-02-08T01:26:48.821Z,59.83
2018-02-08T01:29:16.358Z,54.92
2018-02-08T01:31:43.540Z,59.78
2018-02-08T01:34:10.763Z,60.90
2018-02-08T01:36:37.570Z,66.40
2018-02-08T01:39:04.341Z,62.30
2018-02-08T01:41:31.798Z,67.22
2018-02-08T01:44:00.402Z,57.05
2018-02-08T01:46:26.556Z,57.58
2018-02-08T01:48:52.591Z,67.25
2018-02-08T01:51:18.615Z,60.65
2018-02-08T01:53:44.831Z,64.97
2018-02-08T01:56:11.691Z,62.42
2018-02-08T01:58:37.730Z,62.13
2018-02-08T02:01:03.804Z,66.62
2018-02-08T02:03:30.402Z,63.85
2018-02-08T02:05:57.856Z,62.15
2018-02-08T02:08:24.116Z,61.13
2018-02-08T02:10:50.625Z,64.82
2018-02-08T02:13:17.217Z,56.63
2018-02-08T02:15:44.617Z,69.35
2018-02-08T02:18:10.600Z,66.10
2018-02-08T02:20:36.813Z,60.78
2018-02-08T02:23:04.809Z,61.05
2018-02-08T02:25:31.875Z,68.97
2018-02-08T02:27:58.026Z,62.62
2018-02-08T02:30:24.035Z,60.08
2018-02-08T02:32:50.012Z,67.75
2018-02-08T02:35:16.153Z,63.67
2018-02-08T02:37:42.116Z,79.15
2018-02-08T02:40:08.528Z,61.22
2018-02-08T02:42:34.541Z,65.00
2018-02-08T02:45:00.524Z,62.62
2018-02-08T02:47:27.256Z,62.90
2018-02-08T02:49:53.221Z,70.62
2018-02-08T02:52:19.332Z,67.45
2018-02-08T02:54:46.059Z,66.70
2018-02-08T02:57:12.782Z,67.32
2018-02-08T02:59:38.813Z,62.00
2018-02-08T03:02:04.775Z,71.25
2018-02-08T03:04:30.735Z,67.30
2018-02-08T03:06:56.719Z,62.53
2018-02-08T03:09:22.691Z,68.22
2018-02-08T03:11:48.648Z,69.15
2018-02-08T03:14:14.623Z,63.75
2018-02-08T03:16:40.736Z,63.85
2018-02-08T03:19:06.714Z,67.87
2018-02-08T03:21:33.431Z,60.17
2018-02-08T03:23:59.388Z,68.25
2018-02-08T03:26:25.379Z,73.53
2018-02-08T03:28:52.218Z,67.57
2018-02-08T03:31:18.315Z,63.45
2018-02-08T03:33:44.322Z,64.72
2018-02-08T03:36:11.088Z,64.35
2018-02-08T03:38:37.070Z,63.25
2018-02-08T03:41:03.035Z,67.47
2018-02-08T03:43:29.045Z,61.65
2018-02-08T03:45:55.018Z,63.72
2018-02-08T03:48:21.747Z,78.28
2018-02-08T03:50:48.611Z,64.15
2018-02-08T03:53:14.567Z,67.65
2018-02-08T03:55:40.518Z,63.47
2018-02-08T03:58:06.468Z,61.15
2018-02-08T04:00:33.191Z,66.70
2018-02-08T04:02:59.906Z,67.47
2018-02-08T04:05:25.923Z,68.70
2018-02-08T04:07:51.875Z,67.22
2018-02-08T04:10:18.715Z,72.35
2018-02-08T04:12:44.716Z,70.07
2018-02-08T04:15:10.675Z,69.43
2018-02-08T04:17:37.434Z,68.43
2018-02-08T04:20:03.383Z,69.45
2018-02-08T04:22:29.378Z,67.82
2018-02-08T04:24:55.314Z,67.65
2018-02-08T04:27:22.021Z,69.20
2018-02-08T04:29:48.753Z,75.57
2018-02-08T04:32:15.468Z,72.12
2018-02-08T04:34:41.697Z,73.90
2018-02-08T04:37:07.632Z,70.80
2018-02-08T04:39:34.351Z,74.45
2018-02-08T04:42:00.307Z,78.57
2018-02-08T04:44:27.016Z,88.68
2018-02-08T04:46:52.991Z,79.62
2018-02-08T04:49:19.168Z,74.78
2018-02-08T04:51:45.172Z,73.72
2018-02-08T04:54:11.132Z,67.20
2018-02-08T04:56:37.112Z,84.18
2018-02-08T04:59:03.075Z,79.60
2018-02-08T05:01:29.794Z,86.40
2018-02-08T05:03:55.771Z,81.43
2018-02-08T05:06:21.748Z,75.80
2018-02-08T05:08:47.857Z,82.07
2018-02-08T05:11:13.888Z,82.90
2018-02-08T05:13:39.847Z,91.85
2018-02-08T05:16:05.815Z,78.40
2018-02-08T05:18:31.912Z,75.65
2018-02-08T05:20:57.854Z,76.75
2018-02-08T05:23:23.836Z,79.72
2018-02-08T05:25:49.768Z,74.32
2018-02-08T05:28:15.937Z,79.15
2018-02-08T05:30:41.881Z,86.97
2018-02-08T05:33:07.888Z,91.50
2018-02-08T05:35:33.978Z,83.25
2018-02-08T05:37:59.935Z,87.35
2018-02-08T05:40:25.911Z,80.07
2018-02-08T05:42:51.866Z,81.00
2018-02-08T05:45:17.871Z,85.87
2018-02-08T05:47:43.829Z,82.75
2018-02-08T05:50:09.916Z,67.57
2018-02-08T05:52:35.881Z,78.40
2018-02-08T05:55:01.844Z,86.03
2018-02-08T05:57:27.822Z,83.43
2018-02-08T05:59:53.755Z,80.62
2018-02-08T06:02:20.463Z,81.20
2018-02-08T06:04:46.403Z,78.35
2018-02-08T06:07:12.509Z,76.78
2018-02-08T06:09:38.476Z,84.78
2018-02-08T06:12:05.445Z,84.47
2018-02-08T06:14:31.396Z,70.70
2018-02-08T06:16:57.389Z,77.70
2018-02-08T06:19:23.376Z,86.35
2018-02-08T06:21:50.081Z,79.90
2018-02-08T06:24:16.086Z,79.45
2018-02-08T06:26:42.044Z,71.03
2018-02-08T06:29:08.143Z,81.57
2018-02-08T06:31:34.220Z,87.75
2018-02-08T06:34:01.072Z,85.85
2018-02-08T06:36:27.803Z,78.20
2018-02-08T06:38:54.495Z,80.38
2018-02-08T06:41:20.483Z,74.53
2018-02-08T06:43:46.434Z,75.80
2018-02-08T06:46:12.381Z,85.18
2018-02-08T06:48:38.458Z,78.68
2018-02-08T06:51:04.399Z,81.32
2018-02-08T06:53:30.409Z,78.40
2018-02-08T06:55:56.348Z,82.47
2018-02-08T06:58:22.364Z,68.37
2018-02-08T07:00:48.314Z,73.72
2018-02-08T07:03:14.265Z,75.82
2018-02-08T07:05:40.991Z,73.18
2018-02-08T07:08:06.942Z,81.10
2018-02-08T07:10:32.913Z,87.32
2018-02-08T07:12:58.863Z,85.05
2018-02-08T07:15:25.701Z,78.47
2018-02-08T07:17:51.652Z,83.03
2018-02-08T07:20:17.743Z,86.65
2018-02-08T07:22:43.692Z,83.20
2018-02-08T07:25:09.638Z,82.55
2018-02-08T07:27:35.763Z,89.55
2018-02-08T07:30:01.712Z,79.18
2018-02-08T07:32:27.704Z,77.87
2018-02-08T07:34:53.702Z,81.37
2018-02-08T07:37:20.795Z,84.80
2018-02-08T07:39:46.766Z,82.62
2018-02-08T07:42:13.453Z,91.72
2018-02-08T07:44:39.428Z,89.05
2018-02-08T07:47:06.125Z,90.75
2018-02-08T07:49:32.147Z,88.35
2018-02-08T07:51:58.115Z,78.15
2018-02-08T07:54:24.892Z,85.72
2018-02-08T07:56:50.843Z,85.47
2018-02-08T07:59:16.768Z,82.37
2018-02-08T08:01:42.735Z,93.37
2018-02-08T08:04:08.708Z,91.80
2018-02-08T08:06:34.683Z,83.47
2018-02-08T08:09:00.611Z,88.22
2018-02-08T08:11:26.606Z,82.20
2018-02-08T08:13:53.278Z,86.68
2018-02-08T08:16:19.271Z,88.72
2018-02-08T08:18:45.944Z,87.50
2018-02-08T08:21:11.892Z,86.57
2018-02-08T08:23:37.846Z,90.90
2018-02-08T08:26:04.543Z,90.18
2018-02-08T08:28:30.825Z,92.72
2018-02-08T08:30:56.761Z,83.75
2018-02-08T08:33:22.758Z,89.85
2018-02-08T08:35:49.464Z,89.78
2018-02-08T08:38:15.476Z,86.47
2018-02-08T08:40:41.418Z,93.80
2018-02-08T08:43:07.370Z,85.55
2018-02-08T08:45:34.191Z,91.72
2018-02-08T08:48:00.856Z,93.18
2018-02-08T08:50:26.831Z,87.97
2018-02-08T08:52:52.788Z,87.65
2018-02-08T08:55:19.516Z,84.53
2018-02-08T08:57:45.461Z,76.75
2018-02-08T09:00:12.144Z,89.43
2018-02-08T09:02:38.244Z,91.30
2018-02-08T09:05:04.192Z,97.78
2018-02-08T09:07:30.163Z,100.22
2018-02-08T09:09:56.131Z,96.05
2018-02-08T09:12:22.124Z,89.25
2018-02-08T09:14:48.112Z,93.50
2018-02-08T09:17:14.988Z,93.87
2018-02-08T09:19:41.198Z,87.22
2018-02-08T09:22:07.191Z,98.75
2018-02-08T09:24:34.623Z,97.32
2018-02-08T09:27:00.722Z,78.68
2018-02-08T09:29:27.642Z,97.90
2018-02-08T09:31:54.355Z,99.97
2018-02-08T09:34:20.374Z,88.37
2018-02-08T09:36:46.360Z,95.97
2018-02-08T09:39:12.393Z,94.10
2018-02-08T09:41:38.386Z,84.15
2018-02-08T09:44:04.448Z,95.07
2018-02-08T09:46:30.540Z,91.30
2018-02-08T09:48:56.476Z,91.18
2018-02-08T09:51:22.447Z,84.18
2018-02-08T09:53:48.386Z,92.55
2018-02-08T09:56:15.119Z,82.82
2018-02-08T09:58:41.056Z,89.20
2018-02-08T10:01:06.995Z,87.93
2018-02-08T10:03:33.082Z,94.20
2018-02-08T10:05:59.015Z,93.87
2018-02-08T10:08:25.738Z,93.75
2018-02-08T10:10:51.676Z,80.40
2018-02-08T10:13:18.375Z,81.93
2018-02-08T10:15:44.374Z,82.30
2018-02-08T10:18:10.469Z,84.30
2018-02-08T10:20:37.191Z,93.90
2018-02-08T10:23:03.135Z,92.55
2018-02-08T10:25:29.068Z,84.85
2018-02-08T10:27:55.245Z,78.53
2018-02-08T10:30:21.183Z,81.25
2018-02-08T10:32:47.142Z,93.57
2018-02-08T10:35:13.093Z,91.03
2018-02-08T10:37:39.203Z,81.05
2018-02-08T10:40:05.160Z,82.47
2018-02-08T10:42:31.115Z,85.87
2018-02-08T10:44:57.790Z,84.57
2018-02-08T10:47:23.763Z,89.75
2018-02-08T10:49:49.732Z,90.65
2018-02-08T10:52:15.690Z,92.50
2018-02-08T10:54:41.775Z,84.37
2018-02-08T10:57:07.695Z,88.03
2018-02-08T10:59:33.707Z,78.77
2018-02-08T11:01:59.667Z,83.50
2018-02-08T11:04:25.677Z,82.32
2018-02-08T11:06:51.618Z,86.10
2018-02-08T11:09:17.704Z,87.55
2018-02-08T11:11:43.655Z,82.68
2018-02-08T11:14:09.695Z,88.57
2018-02-08T11:16:35.635Z,76.45
2018-02-08T11:19:02.351Z,85.57
2018-02-08T11:21:28.347Z,79.28
2018-02-08T11:23:54.287Z,76.95
2018-02-08T11:26:20.281Z,83.12
2018-02-08T11:28:46.373Z,86.45
2018-02-08T11:31:12.479Z,83.00
2018-02-08T11:33:38.418Z,76.85
2018-02-08T11:36:05.152Z,79.55
2018-02-08T11:38:31.895Z,86.22
2018-02-08T11:40:58.589Z,81.05
2018-02-08T11:43:24.680Z,88.80
2018-02-08T11:45:50.643Z,78.72
2018-02-08T11:48:16.631Z,78.82
2018-02-08T11:50:42.574Z,81.20
2018-02-08T11:53:08.559Z,76.97
2018-02-08T11:55:34.549Z,85.45
2018-02-08T11:58:00.632Z,79.15
2018-02-08T12:00:26.614Z,79.50
2018-02-08T12:02:53.339Z,81.12
2018-02-08T12:05:19.349Z,72.25
2018-02-08T12:07:45.287Z,86.25
2018-02-08T12:10:11.244Z,75.07
2018-02-08T12:12:37.224Z,74.80
2018-02-08T12:15:03.187Z,81.87
2018-02-08T12:17:29.165Z,77.22
2018-02-08T12:19:55.135Z,79.82
2018-02-08T12:22:21.203Z,81.75
2018-02-08T12:24:47.151Z,81.45
2018-02-08T12:27:13.279Z,73.93
2018-02-08T12:29:39.235Z,69.68
2018-02-08T12:32:05.175Z,74.57
2018-02-08T12:34:31.139Z,82.47
2018-02-08T12:36:57.252Z,76.47
2018-02-08T12:39:23.188Z,79.95
2018-02-08T12:41:49.899Z,75.67
2018-02-08T12:44:15.871Z,75.15
2018-02-08T12:46:41.839Z,75.78
2018-02-08T12:49:07.793Z,75.47
2018-02-08T12:51:33.739Z,79.37
2018-02-08T12:53:59.835Z,73.93
2018-02-08T12:56:25.776Z,77.70
2018-02-08T12:58:51.759Z,85.40
2018-02-08T13:01:17.708Z,79.18
2018-02-08T13:03:44.383Z,74.35
2018-02-08T13:06:10.378Z,74.25
2018-02-08T13:08:37.067Z,71.37
2018-02-08T13:11:03.063Z,76.60
2018-02-08T13:13:29.000Z,83.47
2018-02-08T13:15:54.968Z,78.27
2018-02-08T13:18:20.957Z,70.62
2018-02-08T13:20:46.892Z,86.63
2018-02-08T13:23:12.985Z,72.28
2018-02-08T13:25:38.946Z,82.70
2018-02-08T13:28:05.058Z,74.35
2018-02-08T13:30:31.003Z,79.53
2018-02-08T13:32:56.976Z,83.28
2018-02-08T13:35:23.004Z,81.25
2018-02-08T13:37:48.963Z,77.40
2018-02-08T13:40:15.079Z,82.07
2018-02-08T13:42:41.019Z,84.15
2018-02-08T13:45:06.988Z,84.95
2018-02-08T13:47:32.925Z,83.65
2018-02-08T13:49:58.896Z,87.53
2018-02-08T13:52:25.635Z,81.53
2018-02-08T13:54:52.320Z,78.12
2018-02-08T13:57:18.413Z,85.90
2018-02-08T13:59:44.381Z,77.28
2018-02-08T14:02:10.395Z,82.88
2018-02-08T14:04:36.366Z,86.80
2018-02-08T14:07:03.101Z,90.15
2018-02-08T14:09:29.039Z,84.35
2018-02-08T14:11:55.758Z,87.87
2018-02-08T14:14:21.695Z,76.05
2018-02-08T14:16:48.392Z,75.70
2018-02-08T14:19:14.492Z,71.57
2018-02-08T14:21:41.190Z,82.12
2018-02-08T14:24:07.940Z,77.10
2018-02-08T14:26:34.636Z,71.00
2018-02-08T14:29:00.891Z,70.30
2018-02-08T14:31:26.837Z,77.50
2018-02-08T14:33:52.788Z,79.07
2018-02-08T14:36:18.799Z,73.90
2018-02-08T14:38:44.762Z,76.65
2018-02-08T14:41:10.739Z,71.35
2018-02-08T14:43:36.715Z,74.75
2018-02-08T14:46:02.667Z,71.28
2018-02-08T14:48:28.751Z,77.45
2018-02-08T14:50:54.705Z,77.05
2018-02-08T14:53:21.510Z,72.05
2018-02-08T14:55:47.448Z,80.47
2018-02-08T14:58:13.458Z,72.10
2018-02-08T15:00:39.396Z,81.18
2018-02-08T15:03:05.360Z,80.97
2018-02-08T15:05:31.464Z,82.32
2018-02-08T15:07:58.196Z,85.60
2018-02-08T15:10:24.885Z,80.85
2018-02-08T15:12:50.829Z,82.12
2018-02-08T15:15:16.824Z,76.18
2018-02-08T15:17:42.777Z,78.75
2018-02-08T15:20:08.877Z,79.73
2018-02-08T15:22:34.831Z,84.03
2018-02-08T15:25:00.779Z,77.78
2018-02-08T15:27:26.934Z,82.45
2018-02-08T15:29:52.931Z,73.55
2018-02-08T15:32:18.905Z,82.57
2018-02-08T15:34:44.912Z,75.60
2018-02-08T15:37:11.012Z,75.43
2018-02-08T15:39:36.983Z,79.03
2018-02-08T15:42:02.929Z,77.20
2018-02-08T15:44:29.643Z,80.82
2018-02-08T15:46:55.616Z,85.55
2018-02-08T15:49:21.675Z,82.00
2018-02-08T15:51:47.636Z,77.78
2018-02-08T15:54:14.480Z,76.45
2018-02-08T15:56:41.196Z,72.40
2018-02-08T15:59:07.278Z,82.20
2018-02-08T16:01:33.270Z,82.45
2018-02-08T16:03:59.235Z,83.70
2018-02-08T16:06:25.971Z,83.18
2018-02-08T16:08:51.918Z,79.70
2018-02-08T16:11:18.028Z,73.60
2018-02-08T16:13:44.020Z,72.75
2018-02-08T16:16:09.981Z,75.32
2018-02-08T16:18:36.037Z,67.35
2018-02-08T16:21:02.809Z,80.00
2018-02-08T16:23:33.963Z,84.55
2018-02-08T16:26:06.979Z,84.20
2018-02-08T16:28:56.447Z,73.93
2018-02-08T16:31:38.212Z,77.43
2018-02-08T16:34:14.573Z,78.22
2018-02-08T16:40:00.825Z,82.80
2018-02-08T16:42:27.016Z,84.72
2018-02-08T16:44:53.092Z,78.07
2018-02-08T16:47:19.100Z,77.97
2018-02-08T16:49:45.755Z,75.95
2018-02-08T16:52:11.924Z,75.00
2018-02-08T16:54:38.454Z,79.05
2018-02-08T16:57:06.825Z,78.15
2018-02-08T16:59:33.531Z,73.80
2018-02-08T17:01:59.676Z,88.07
2018-02-08T17:04:26.379Z,81.95
2018-02-08T17:06:52.564Z,84.10
2018-02-08T17:09:18.500Z,81.97
2018-02-08T17:11:44.460Z,74.55
2018-02-08T17:14:10.444Z,82.10
2018-02-08T17:16:36.394Z,79.60
2018-02-08T17:19:02.389Z,79.22
2018-02-08T17:21:28.414Z,79.55
2018-02-08T17:23:55.078Z,77.10
2018-02-08T17:26:21.256Z,81.78
2018-02-08T17:28:48.187Z,90.00
2018-02-08T17:31:14.920Z,74.90
2018-02-08T17:33:40.920Z,70.90
2018-02-08T17:36:07.155Z,84.30
2018-02-08T17:38:33.142Z,78.93
2018-02-08T17:40:59.138Z,84.40
2018-02-08T17:43:25.171Z,80.12
2018-02-08T17:45:51.132Z,92.20
2018-02-08T17:48:17.132Z,74.70
2018-02-08T17:50:44.695Z,84.80
2018-02-08T17:53:11.910Z,91.32
2018-02-08T17:55:37.900Z,88.72
2018-02-08T17:58:04.107Z,90.40
2018-02-08T18:00:30.074Z,76.72
2018-02-08T18:02:56.799Z,88.60
2018-02-08T18:05:22.765Z,84.28
2018-02-08T18:07:48.976Z,75.32
2018-02-08T18:10:15.900Z,90.32
2018-02-08T18:12:42.084Z,81.45
2018-02-08T18:15:08.073Z,80.72
2018-02-08T18:17:34.072Z,80.80
2018-02-08T18:20:00.117Z,86.70
2018-02-08T18:22:26.110Z,82.32
2018-02-08T18:24:52.642Z,80.60
2018-02-08T18:27:18.846Z,84.85
2018-02-08T18:29:44.924Z,74.32
2018-02-08T18:32:11.661Z,81.90
2018-02-08T18:34:38.365Z,81.72
2018-02-08T18:37:04.401Z,78.18
2018-02-08T18:39:30.511Z,78.40
2018-02-08T18:41:56.536Z,74.35
2018-02-08T18:44:22.860Z,78.43
2018-02-08T18:46:48.925Z,80.20
2018-02-08T18:49:15.699Z,80.95
2018-02-08T18:51:41.773Z,76.00
2018-02-08T18:54:07.821Z,109.55
2018-02-08T18:56:33.816Z,143.85
2018-02-08T18:58:59.974Z,149.95
2018-02-08T19:01:27.782Z,131.43
2018-02-08T19:03:55.163Z,91.65
2018-02-08T19:06:21.964Z,78.28
2018-02-08T19:08:47.978Z,78.40
2018-02-08T19:11:18.182Z,87.07
2018-02-08T19:13:48.491Z,84.65
2018-02-08T19:16:18.472Z,76.43
2018-02-08T19:18:49.911Z,83.75
2018-02-08T19:21:18.527Z,82.75
2018-02-08T19:23:45.823Z,78.40
2018-02-08T19:26:12.717Z,79.70
2018-02-08T19:28:42.477Z,76.60
2018-02-08T19:31:09.277Z,80.47
2018-02-08T19:33:37.861Z,91.05
2018-02-08T19:36:05.051Z,79.75
2018-02-08T19:38:31.153Z,83.50
2018-02-08T19:40:59.218Z,71.53
2018-02-08T19:43:25.294Z,81.12
2018-02-08T19:45:51.303Z,73.82
2018-02-08T19:48:17.324Z,73.43
2018-02-08T19:50:43.517Z,77.22
2018-02-08T19:53:10.330Z,73.03
2018-02-08T19:55:36.373Z,74.00
2018-02-08T19:58:03.283Z,84.75
2018-02-08T20:00:29.633Z,84.50
2018-02-08T20:02:56.882Z,82.85
2018-02-08T20:05:22.874Z,78.72
2018-02-08T20:07:49.007Z,85.80
2018-02-08T20:10:15.015Z,84.97
2018-02-08T20:12:41.025Z,79.87
2018-02-08T20:15:07.088Z,83.22
2018-02-08T20:17:33.261Z,78.12
2018-02-08T20:20:00.009Z,78.97
2018-02-08T20:22:26.701Z,79.87
2018-02-08T20:24:52.753Z,83.90
2018-02-08T20:27:18.709Z,78.60
2018-02-08T20:29:44.737Z,83.12
2018-02-08T20:32:10.727Z,89.50
2018-02-08T20:34:36.671Z,82.40
2018-02-08T20:37:02.953Z,86.97
2018-02-08T20:39:28.980Z,89.30
2018-02-08T20:41:54.941Z,86.55
2018-02-08T20:44:20.904Z,87.55
2018-02-08T20:46:46.846Z,78.97
2018-02-08T20:49:12.972Z,75.75
2018-02-08T20:51:38.927Z,88.43
2018-02-08T20:54:05.658Z,92.65
2018-02-08T20:56:32.363Z,79.72
2018-02-08T20:58:58.373Z,80.18
2018-02-08T21:01:24.324Z,85.20
2018-02-08T21:03:50.476Z,91.47
2018-02-08T21:06:17.173Z,87.12
2018-02-08T21:08:43.125Z,91.68
2018-02-08T21:11:09.887Z,93.75
2018-02-08T21:13:35.830Z,87.95
2018-02-08T21:16:01.810Z,96.47
2018-02-08T21:18:28.496Z,89.28
2018-02-08T21:20:54.579Z,82.25
2018-02-08T21:23:21.278Z,87.75
2018-02-08T21:25:47.258Z,87.68
2018-02-08T21:28:13.504Z,88.55
2018-02-08T21:30:39.448Z,88.00
2018-02-08T21:33:05.446Z,91.20
2018-02-08T21:35:31.403Z,83.53
2018-02-08T21:37:57.358Z,89.50
2018-02-08T21:40:24.208Z,84.95
2018-02-08T21:42:50.182Z,92.95
2018-02-08T21:45:16.162Z,83.82
2018-02-08T21:47:42.103Z,81.87
2018-02-08T21:50:08.088Z,78.25
2018-02-08T21:52:34.944Z,97.28
2018-02-08T21:55:00.916Z,80.03
2018-02-08T21:57:26.920Z,100.25
2018-02-08T21:59:52.932Z,90.75
2018-02-08T22:02:19.043Z,88.93
2018-02-08T22:04:44.997Z,93.10
2018-02-08T22:07:10.976Z,95.93
2018-02-08T22:09:37.662Z,91.68
2018-02-08T22:12:03.652Z,94.32
2018-02-08T22:14:29.633Z,98.25
2018-02-08T22:16:55.627Z,94.43
2018-02-08T22:19:21.691Z,88.85
2018-02-08T22:21:47.677Z,93.25
2018-02-08T22:24:13.668Z,83.47
2018-02-08T22:26:39.612Z,86.00
2018-02-08T22:29:05.842Z,84.82
2018-02-08T22:31:31.801Z,87.35
2018-02-08T22:33:57.933Z,86.50
2018-02-08T22:36:23.929Z,83.10
2018-02-08T22:38:49.885Z,81.43
2018-02-08T22:41:16.600Z,101.07
2018-02-08T22:43:42.553Z,91.68
2018-02-08T22:46:09.260Z,91.45
2018-02-08T22:48:35.191Z,90.70
2018-02-08T22:51:01.282Z,97.40
2018-02-08T22:53:27.230Z,87.72
2018-02-08T22:55:53.204Z,89.68
2018-02-08T22:58:19.174Z,89.95
2018-02-08T23:00:45.136Z,85.65
2018-02-08T23:03:11.127Z,87.37
2018-02-08T23:05:37.094Z,84.80
2018-02-08T23:08:03.123Z,86.93
2018-02-08T23:10:29.075Z,90.95
2018-02-08T23:12:55.056Z,96.03
2018-02-08T23:15:21.011Z,83.93
2018-02-08T23:17:46.952Z,89.45
2018-02-08T23:20:12.946Z,84.25
2018-02-08T23:22:38.888Z,91.28
2018-02-08T23:25:04.967Z,90.10
2018-02-08T23:27:31.062Z,87.03
2018-02-08T23:29:57.767Z,85.78
2018-02-08T23:32:23.731Z,93.90
2018-02-08T23:34:50.474Z,89.72
2018-02-08T23:37:17.300Z,87.80
2018-02-08T23:39:43.247Z,98.30
2018-02-08T23:42:09.205Z,93.75
2018-02-08T23:44:35.156Z,82.90
2018-02-08T23:47:01.154Z,94.47
2018-02-08T23:49:27.107Z,94.15
2018-02-08T23:51:53.076Z,94.85
2018-02-08T23:54:19.160Z,100.03
2018-02-08T23:56:45.845Z,90.60
2018-02-08T23:59:11.844Z,104.60
